sensor_id;sensor_type;location;lat;lon;timestamp;temperature;humidity
65582;DHT22;52231;40.090;18.348;2022-11-24T00:01:50;7.50;90.00
65582;DHT22;52231;40.090;18.348;2022-11-24T00:04:19;7.40;90.00
65582;DHT22;52231;40.090;18.348;2022-11-24T00:06:47;7.40;90.00
65582;DHT22;52231;40.090;18.348;2022-11-24T00:09:16;7.30;90.00
65582;DHT22;52231;40.090;18.348;2022-11-24T00:11:44;7.30;90.10
65582;DHT22;52231;40.090;18.348;2022-11-24T00:14:13;7.30;90.20
65582;DHT22;52231;40.090;18.348;2022-11-24T00:16:41;7.40;90.20
65582;DHT22;52231;40.090;18.348;2022-11-24T00:19:10;7.30;90.10
65582;DHT22;52231;40.090;18.348;2022-11-24T00:21:41;7.30;90.00
65582;DHT22;52231;40.090;18.348;2022-11-24T00:24:10;7.30;89.90
65582;DHT22;52231;40.090;18.348;2022-11-24T00:26:39;7.20;89.90
65582;DHT22;52231;40.090;18.348;2022-11-24T00:29:10;7.20;89.90
65582;DHT22;52231;40.090;18.348;2022-11-24T00:31:41;7.20;90.00
65582;DHT22;52231;40.090;18.348;2022-11-24T00:34:12;7.20;90.00
65582;DHT22;52231;40.090;18.348;2022-11-24T00:36:41;7.20;90.10
65582;DHT22;52231;40.090;18.348;2022-11-24T00:39:12;7.10;90.00
65582;DHT22;52231;40.090;18.348;2022-11-24T00:41:41;7.10;90.10
65582;DHT22;52231;40.090;18.348;2022-11-24T00:44:09;7.10;89.90
65582;DHT22;52231;40.090;18.348;2022-11-24T00:46:38;7.00;89.80
65582;DHT22;52231;40.090;18.348;2022-11-24T00:49:06;7.00;89.60
65582;DHT22;52231;40.090;18.348;2022-11-24T00:51:34;6.90;89.40
65582;DHT22;52231;40.090;18.348;2022-11-24T00:54:02;6.80;89.40
65582;DHT22;52231;40.090;18.348;2022-11-24T00:56:31;6.80;89.50
65582;DHT22;52231;40.090;18.348;2022-11-24T00:58:59;6.80;89.60
65582;DHT22;52231;40.090;18.348;2022-11-24T01:01:28;6.80;89.60
65582;DHT22;52231;40.090;18.348;2022-11-24T01:03:59;6.80;89.70
65582;DHT22;52231;40.090;18.348;2022-11-24T01:06:30;6.80;89.70
65582;DHT22;52231;40.090;18.348;2022-11-24T01:08:59;6.80;89.70
65582;DHT22;52231;40.090;18.348;2022-11-24T01:11:32;6.70;89.60
65582;DHT22;52231;40.090;18.348;2022-11-24T01:14:22;6.60;89.70
65582;DHT22;52231;40.090;18.348;2022-11-24T01:16:51;6.60;89.70
65582;DHT22;52231;40.090;18.348;2022-11-24T01:19:20;6.60;89.60
65582;DHT22;52231;40.090;18.348;2022-11-24T01:21:48;6.60;89.70
65582;DHT22;52231;40.090;18.348;2022-11-24T01:24:16;6.60;89.80
65582;DHT22;52231;40.090;18.348;2022-11-24T01:26:45;6.60;89.70
65582;DHT22;52231;40.090;18.348;2022-11-24T01:29:13;6.50;89.60
65582;DHT22;52231;40.090;18.348;2022-11-24T01:31:41;6.50;89.70
65582;DHT22;52231;40.090;18.348;2022-11-24T01:34:12;6.40;89.60
65582;DHT22;52231;40.090;18.348;2022-11-24T01:36:40;6.40;89.60
65582;DHT22;52231;40.090;18.348;2022-11-24T01:39:08;6.30;89.70
65582;DHT22;52231;40.090;18.348;2022-11-24T01:41:36;6.30;89.70
65582;DHT22;52231;40.090;18.348;2022-11-24T01:44:27;6.30;89.70
65582;DHT22;52231;40.090;18.348;2022-11-24T01:47:16;6.30;89.70
65582;DHT22;52231;40.090;18.348;2022-11-24T01:49:51;6.20;89.80
65582;DHT22;52231;40.090;18.348;2022-11-24T01:52:38;6.20;89.80
65582;DHT22;52231;40.090;18.348;2022-11-24T01:55:13;6.10;89.80
65582;DHT22;52231;40.090;18.348;2022-11-24T01:57:51;6.10;89.80
65582;DHT22;52231;40.090;18.348;2022-11-24T02:00:22;6.00;89.80
65582;DHT22;52231;40.090;18.348;2022-11-24T02:02:51;6.00;89.80
65582;DHT22;52231;40.090;18.348;2022-11-24T02:05:30;6.00;89.80
65582;DHT22;52231;40.090;18.348;2022-11-24T02:08:01;5.90;89.90
65582;DHT22;52231;40.090;18.348;2022-11-24T02:10:30;5.90;90.00
65582;DHT22;52231;40.090;18.348;2022-11-24T02:12:58;5.90;90.10
65582;DHT22;52231;40.090;18.348;2022-11-24T02:15:27;5.90;90.20
65582;DHT22;52231;40.090;18.348;2022-11-24T02:17:57;6.00;90.40
65582;DHT22;52231;40.090;18.348;2022-11-24T02:20:26;6.00;90.40
65582;DHT22;52231;40.090;18.348;2022-11-24T02:23:02;6.00;90.30
65582;DHT22;52231;40.090;18.348;2022-11-24T02:28:26;5.90;90.30
65582;DHT22;52231;40.090;18.348;2022-11-24T02:30:59;5.90;90.30
65582;DHT22;52231;40.090;18.348;2022-11-24T02:33:28;5.80;90.20
65582;DHT22;52231;40.090;18.348;2022-11-24T02:35:56;5.80;90.20
65582;DHT22;52231;40.090;18.348;2022-11-24T02:38:32;5.80;90.20
65582;DHT22;52231;40.090;18.348;2022-11-24T02:41:06;5.80;90.10
65582;DHT22;52231;40.090;18.348;2022-11-24T02:43:38;5.70;89.90
65582;DHT22;52231;40.090;18.348;2022-11-24T02:46:08;5.70;89.80
65582;DHT22;52231;40.090;18.348;2022-11-24T02:48:37;5.60;89.80
65582;DHT22;52231;40.090;18.348;2022-11-24T02:51:05;5.50;90.10
65582;DHT22;52231;40.090;18.348;2022-11-24T02:53:33;5.50;90.10
65582;DHT22;52231;40.090;18.348;2022-11-24T02:56:02;5.50;90.20
65582;DHT22;52231;40.090;18.348;2022-11-24T02:58:30;5.50;90.30
65582;DHT22;52231;40.090;18.348;2022-11-24T03:00:59;5.50;90.50
65582;DHT22;52231;40.090;18.348;2022-11-24T03:03:27;5.60;90.70
65582;DHT22;52231;40.090;18.348;2022-11-24T03:05:55;5.60;90.80
65582;DHT22;52231;40.090;18.348;2022-11-24T03:08:23;5.60;90.90
65582;DHT22;52231;40.090;18.348;2022-11-24T03:10:51;5.60;91.00
65582;DHT22;52231;40.090;18.348;2022-11-24T03:13:19;5.60;91.00
65582;DHT22;52231;40.090;18.348;2022-11-24T03:15:47;5.60;91.00
65582;DHT22;52231;40.090;18.348;2022-11-24T03:18:15;5.60;91.00
65582;DHT22;52231;40.090;18.348;2022-11-24T03:20:43;5.60;91.00
65582;DHT22;52231;40.090;18.348;2022-11-24T03:23:12;5.50;91.00
65582;DHT22;52231;40.090;18.348;2022-11-24T03:25:40;5.50;91.30
65582;DHT22;52231;40.090;18.348;2022-11-24T03:28:10;5.50;91.30
65582;DHT22;52231;40.090;18.348;2022-11-24T03:30:38;5.60;91.40
65582;DHT22;52231;40.090;18.348;2022-11-24T03:33:06;5.50;91.30
65582;DHT22;52231;40.090;18.348;2022-11-24T03:35:34;5.50;91.30
65582;DHT22;52231;40.090;18.348;2022-11-24T03:38:02;5.50;91.30
65582;DHT22;52231;40.090;18.348;2022-11-24T03:40:30;5.50;91.20
65582;DHT22;52231;40.090;18.348;2022-11-24T03:42:58;5.40;91.10
65582;DHT22;52231;40.090;18.348;2022-11-24T03:45:26;5.40;91.10
65582;DHT22;52231;40.090;18.348;2022-11-24T03:48:15;5.30;91.10
65582;DHT22;52231;40.090;18.348;2022-11-24T03:50:58;5.30;91.10
65582;DHT22;52231;40.090;18.348;2022-11-24T03:53:28;5.30;91.10
65582;DHT22;52231;40.090;18.348;2022-11-24T03:55:57;5.30;91.20
65582;DHT22;52231;40.090;18.348;2022-11-24T03:58:25;5.30;91.20
65582;DHT22;52231;40.090;18.348;2022-11-24T04:00:53;5.30;91.20
65582;DHT22;52231;40.090;18.348;2022-11-24T04:03:23;5.30;91.30
65582;DHT22;52231;40.090;18.348;2022-11-24T04:05:51;5.30;91.30
65582;DHT22;52231;40.090;18.348;2022-11-24T04:08:19;5.30;91.40
65582;DHT22;52231;40.090;18.348;2022-11-24T04:10:52;5.30;91.40
65582;DHT22;52231;40.090;18.348;2022-11-24T04:13:22;5.30;91.50
65582;DHT22;52231;40.090;18.348;2022-11-24T04:15:51;5.30;91.50
65582;DHT22;52231;40.090;18.348;2022-11-24T04:18:19;5.30;91.50
65582;DHT22;52231;40.090;18.348;2022-11-24T04:20:51;5.30;91.60
65582;DHT22;52231;40.090;18.348;2022-11-24T04:23:19;5.20;91.60
65582;DHT22;52231;40.090;18.348;2022-11-24T04:25:47;5.20;91.60
65582;DHT22;52231;40.090;18.348;2022-11-24T04:28:15;5.20;91.60
65582;DHT22;52231;40.090;18.348;2022-11-24T04:30:43;5.20;91.60
65582;DHT22;52231;40.090;18.348;2022-11-24T04:33:11;5.20;91.70
65582;DHT22;52231;40.090;18.348;2022-11-24T04:35:40;5.20;91.70
65582;DHT22;52231;40.090;18.348;2022-11-24T04:38:08;5.20;91.70
65582;DHT22;52231;40.090;18.348;2022-11-24T04:40:36;5.20;91.80
65582;DHT22;52231;40.090;18.348;2022-11-24T04:43:04;5.30;91.90
65582;DHT22;52231;40.090;18.348;2022-11-24T04:45:33;5.30;91.90
65582;DHT22;52231;40.090;18.348;2022-11-24T04:48:01;5.30;92.00
65582;DHT22;52231;40.090;18.348;2022-11-24T04:50:30;5.30;92.00
65582;DHT22;52231;40.090;18.348;2022-11-24T04:52:59;5.30;92.00
65582;DHT22;52231;40.090;18.348;2022-11-24T04:55:27;5.30;92.00
65582;DHT22;52231;40.090;18.348;2022-11-24T04:57:55;5.20;91.90
65582;DHT22;52231;40.090;18.348;2022-11-24T05:00:23;5.20;91.90
65582;DHT22;52231;40.090;18.348;2022-11-24T05:02:51;5.10;91.90
65582;DHT22;52231;40.090;18.348;2022-11-24T05:05:19;5.10;91.90
65582;DHT22;52231;40.090;18.348;2022-11-24T05:07:47;5.10;92.00
65582;DHT22;52231;40.090;18.348;2022-11-24T05:10:15;5.20;92.00
65582;DHT22;52231;40.090;18.348;2022-11-24T05:13:04;5.20;92.00
65582;DHT22;52231;40.090;18.348;2022-11-24T05:15:33;5.10;92.10
65582;DHT22;52231;40.090;18.348;2022-11-24T05:18:04;5.10;92.10
65582;DHT22;52231;40.090;18.348;2022-11-24T05:20:34;5.10;92.10
65582;DHT22;52231;40.090;18.348;2022-11-24T05:23:04;5.00;92.00
65582;DHT22;52231;40.090;18.348;2022-11-24T05:25:33;5.00;92.00
65582;DHT22;52231;40.090;18.348;2022-11-24T05:28:04;5.00;92.10
65582;DHT22;52231;40.090;18.348;2022-11-24T05:30:32;5.00;92.20
65582;DHT22;52231;40.090;18.348;2022-11-24T05:33:04;5.00;92.20
65582;DHT22;52231;40.090;18.348;2022-11-24T05:35:34;5.00;92.30
65582;DHT22;52231;40.090;18.348;2022-11-24T05:38:03;5.00;92.30
65582;DHT22;52231;40.090;18.348;2022-11-24T05:40:31;5.00;92.30
65582;DHT22;52231;40.090;18.348;2022-11-24T05:43:01;5.00;92.40
65582;DHT22;52231;40.090;18.348;2022-11-24T05:45:29;5.10;92.40
65582;DHT22;52231;40.090;18.348;2022-11-24T05:48:04;5.10;92.40
65582;DHT22;52231;40.090;18.348;2022-11-24T05:50:56;5.10;92.40
65582;DHT22;52231;40.090;18.348;2022-11-24T05:53:25;5.10;92.40
65582;DHT22;52231;40.090;18.348;2022-11-24T05:55:53;5.10;92.40
65582;DHT22;52231;40.090;18.348;2022-11-24T05:58:21;5.10;92.30
65582;DHT22;52231;40.090;18.348;2022-11-24T06:00:49;5.10;92.30
65582;DHT22;52231;40.090;18.348;2022-11-24T06:03:17;5.20;92.30
65582;DHT22;52231;40.090;18.348;2022-11-24T06:05:46;5.30;92.40
65582;DHT22;52231;40.090;18.348;2022-11-24T06:08:14;5.40;92.40
65582;DHT22;52231;40.090;18.348;2022-11-24T06:10:42;5.60;92.40
65582;DHT22;52231;40.090;18.348;2022-11-24T06:13:10;5.80;92.50
65582;DHT22;52231;40.090;18.348;2022-11-24T06:15:38;6.10;92.50
65582;DHT22;52231;40.090;18.348;2022-11-24T06:18:07;6.40;92.50
65582;DHT22;52231;40.090;18.348;2022-11-24T06:20:35;6.80;92.50
65582;DHT22;52231;40.090;18.348;2022-11-24T06:23:03;7.20;92.30
65582;DHT22;52231;40.090;18.348;2022-11-24T06:25:31;7.50;92.10
65582;DHT22;52231;40.090;18.348;2022-11-24T06:28:02;7.80;91.70
65582;DHT22;52231;40.090;18.348;2022-11-24T06:30:31;8.00;90.90
65582;DHT22;52231;40.090;18.348;2022-11-24T06:33:00;8.30;90.30
65582;DHT22;52231;40.090;18.348;2022-11-24T06:35:28;8.60;89.50
65582;DHT22;52231;40.090;18.348;2022-11-24T06:37:56;8.90;88.80
65582;DHT22;52231;40.090;18.348;2022-11-24T06:40:24;9.30;87.80
65582;DHT22;52231;40.090;18.348;2022-11-24T06:42:52;9.50;87.20
65582;DHT22;52231;40.090;18.348;2022-11-24T06:45:20;9.80;86.40
65582;DHT22;52231;40.090;18.348;2022-11-24T06:47:53;10.20;85.40
65582;DHT22;52231;40.090;18.348;2022-11-24T06:50:21;10.50;84.50
65582;DHT22;52231;40.090;18.348;2022-11-24T06:52:50;10.80;83.00
65582;DHT22;52231;40.090;18.348;2022-11-24T06:55:18;11.00;81.80
65582;DHT22;52231;40.090;18.348;2022-11-24T06:57:46;11.30;80.90
65582;DHT22;52231;40.090;18.348;2022-11-24T07:00:17;11.50;80.90
65582;DHT22;52231;40.090;18.348;2022-11-24T07:02:46;11.80;80.10
65582;DHT22;52231;40.090;18.348;2022-11-24T07:05:14;12.00;78.70
65582;DHT22;52231;40.090;18.348;2022-11-24T07:07:42;12.20;78.20
65582;DHT22;52231;40.090;18.348;2022-11-24T07:10:10;12.40;77.70
65582;DHT22;52231;40.090;18.348;2022-11-24T07:12:38;12.50;77.20
65582;DHT22;52231;40.090;18.348;2022-11-24T07:15:06;12.70;77.10
65582;DHT22;52231;40.090;18.348;2022-11-24T07:17:39;12.90;76.70
65582;DHT22;52231;40.090;18.348;2022-11-24T07:20:08;13.20;76.20
65582;DHT22;52231;40.090;18.348;2022-11-24T07:22:36;13.40;74.90
65582;DHT22;52231;40.090;18.348;2022-11-24T07:25:05;13.60;74.40
65582;DHT22;52231;40.090;18.348;2022-11-24T07:27:36;13.80;73.80
65582;DHT22;52231;40.090;18.348;2022-11-24T07:30:06;13.90;72.90
65582;DHT22;52231;40.090;18.348;2022-11-24T07:32:34;13.90;72.30
65582;DHT22;52231;40.090;18.348;2022-11-24T07:35:02;14.10;71.90
65582;DHT22;52231;40.090;18.348;2022-11-24T07:37:30;14.20;72.00
65582;DHT22;52231;40.090;18.348;2022-11-24T07:39:59;14.30;71.00
65582;DHT22;52231;40.090;18.348;2022-11-24T07:42:27;14.50;70.70
65582;DHT22;52231;40.090;18.348;2022-11-24T07:44:55;14.60;70.20
65582;DHT22;52231;40.090;18.348;2022-11-24T07:47:23;14.70;69.80
65582;DHT22;52231;40.090;18.348;2022-11-24T07:49:51;14.90;69.30
65582;DHT22;52231;40.090;18.348;2022-11-24T07:52:20;15.00;68.20
65582;DHT22;52231;40.090;18.348;2022-11-24T07:54:48;15.10;67.60
65582;DHT22;52231;40.090;18.348;2022-11-24T07:57:16;15.20;66.60
65582;DHT22;52231;40.090;18.348;2022-11-24T07:59:44;15.30;66.10
65582;DHT22;52231;40.090;18.348;2022-11-24T08:02:12;15.30;65.40
65582;DHT22;52231;40.090;18.348;2022-11-24T08:04:40;15.30;64.20
65582;DHT22;52231;40.090;18.348;2022-11-24T08:07:08;15.40;64.70
65582;DHT22;52231;40.090;18.348;2022-11-24T08:09:36;15.40;63.30
65582;DHT22;52231;40.090;18.348;2022-11-24T08:12:05;15.40;64.00
65582;DHT22;52231;40.090;18.348;2022-11-24T08:14:33;15.50;63.60
65582;DHT22;52231;40.090;18.348;2022-11-24T08:17:01;15.50;63.10
65582;DHT22;52231;40.090;18.348;2022-11-24T08:19:29;15.60;62.40
65582;DHT22;52231;40.090;18.348;2022-11-24T08:21:59;15.60;62.40
65582;DHT22;52231;40.090;18.348;2022-11-24T08:24:27;15.70;62.70
65582;DHT22;52231;40.090;18.348;2022-11-24T08:26:55;15.80;62.80
65582;DHT22;52231;40.090;18.348;2022-11-24T08:29:27;16.00;62.70
65582;DHT22;52231;40.090;18.348;2022-11-24T08:31:56;16.00;61.70
65582;DHT22;52231;40.090;18.348;2022-11-24T08:34:24;16.10;61.60
65582;DHT22;52231;40.090;18.348;2022-11-24T08:36:53;16.10;61.50
65582;DHT22;52231;40.090;18.348;2022-11-24T08:39:21;16.20;61.90
65582;DHT22;52231;40.090;18.348;2022-11-24T08:41:49;16.30;61.60
65582;DHT22;52231;40.090;18.348;2022-11-24T08:44:17;16.30;61.30
65582;DHT22;52231;40.090;18.348;2022-11-24T08:46:45;16.40;60.90
65582;DHT22;52231;40.090;18.348;2022-11-24T08:49:14;16.60;60.60
65582;DHT22;52231;40.090;18.348;2022-11-24T08:51:42;16.70;59.90
65582;DHT22;52231;40.090;18.348;2022-11-24T08:54:10;16.90;60.10
65582;DHT22;52231;40.090;18.348;2022-11-24T08:56:41;17.00;59.40
65582;DHT22;52231;40.090;18.348;2022-11-24T08:59:13;17.10;59.60
65582;DHT22;52231;40.090;18.348;2022-11-24T09:01:41;17.20;59.10
65582;DHT22;52231;40.090;18.348;2022-11-24T09:04:10;17.10;58.60
65582;DHT22;52231;40.090;18.348;2022-11-24T09:06:38;17.10;58.80
65582;DHT22;52231;40.090;18.348;2022-11-24T09:09:06;17.10;58.10
65582;DHT22;52231;40.090;18.348;2022-11-24T09:11:34;17.20;58.20
65582;DHT22;52231;40.090;18.348;2022-11-24T09:14:02;17.20;57.90
65582;DHT22;52231;40.090;18.348;2022-11-24T09:16:30;17.20;57.70
65582;DHT22;52231;40.090;18.348;2022-11-24T09:19:04;17.20;58.00
65582;DHT22;52231;40.090;18.348;2022-11-24T09:21:33;17.20;58.40
65582;DHT22;52231;40.090;18.348;2022-11-24T09:24:05;17.30;58.00
65582;DHT22;52231;40.090;18.348;2022-11-24T09:26:37;17.40;57.80
65582;DHT22;52231;40.090;18.348;2022-11-24T09:29:09;17.40;58.20
65582;DHT22;52231;40.090;18.348;2022-11-24T09:31:38;17.70;58.60
65582;DHT22;52231;40.090;18.348;2022-11-24T09:34:25;17.90;58.00
65582;DHT22;52231;40.090;18.348;2022-11-24T09:36:53;17.90;57.00
65582;DHT22;52231;40.090;18.348;2022-11-24T09:39:24;18.00;57.30
65582;DHT22;52231;40.090;18.348;2022-11-24T09:47:31;18.00;57.40
65582;DHT22;52231;40.090;18.348;2022-11-24T09:50:23;18.00;56.90
65582;DHT22;52231;40.090;18.348;2022-11-24T09:55:54;17.90;57.70
65582;DHT22;52231;40.090;18.348;2022-11-24T09:59:11;18.00;56.40
65582;DHT22;52231;40.090;18.348;2022-11-24T10:01:35;18.00;56.60
65582;DHT22;52231;40.090;18.348;2022-11-24T10:04:33;17.90;56.60
65582;DHT22;52231;40.090;18.348;2022-11-24T10:07:21;17.90;56.60
65582;DHT22;52231;40.090;18.348;2022-11-24T10:18:26;18.10;56.50
65582;DHT22;52231;40.090;18.348;2022-11-24T10:21:42;18.10;57.10
65582;DHT22;52231;40.090;18.348;2022-11-24T10:26:50;18.50;57.00
65582;DHT22;52231;40.090;18.348;2022-11-24T10:32:31;18.80;56.00
65582;DHT22;52231;40.090;18.348;2022-11-24T10:35:23;18.80;55.60
65582;DHT22;52231;40.090;18.348;2022-11-24T10:40:55;18.30;55.90
65582;DHT22;52231;40.090;18.348;2022-11-24T10:43:26;18.30;56.20
65582;DHT22;52231;40.090;18.348;2022-11-24T10:49:01;18.30;55.80
65582;DHT22;52231;40.090;18.348;2022-11-24T10:54:16;18.30;56.90
65582;DHT22;52231;40.090;18.348;2022-11-24T10:56:46;18.30;56.90
65582;DHT22;52231;40.090;18.348;2022-11-24T11:01:52;17.80;57.50
65582;DHT22;52231;40.090;18.348;2022-11-24T11:04:20;17.70;58.20
65582;DHT22;52231;40.090;18.348;2022-11-24T11:06:49;18.00;57.20
65582;DHT22;52231;40.090;18.348;2022-11-24T11:09:20;18.40;57.50
65582;DHT22;52231;40.090;18.348;2022-11-24T11:11:52;18.80;55.00
65582;DHT22;52231;40.090;18.348;2022-11-24T11:14:31;18.90;54.30
65582;DHT22;52231;40.090;18.348;2022-11-24T11:17:01;19.00;54.00
65582;DHT22;52231;40.090;18.348;2022-11-24T11:19:41;19.00;53.80
65582;DHT22;52231;40.090;18.348;2022-11-24T11:22:22;18.90;53.80
65582;DHT22;52231;40.090;18.348;2022-11-24T11:25:16;18.80;54.50
65582;DHT22;52231;40.090;18.348;2022-11-24T11:27:45;18.80;53.80
65582;DHT22;52231;40.090;18.348;2022-11-24T11:30:17;18.80;53.40
65582;DHT22;52231;40.090;18.348;2022-11-24T11:33:22;18.80;54.60
65582;DHT22;52231;40.090;18.348;2022-11-24T11:36:10;19.00;54.50
65582;DHT22;52231;40.090;18.348;2022-11-24T11:38:40;19.10;53.20
65582;DHT22;52231;40.090;18.348;2022-11-24T11:41:25;18.90;53.20
65582;DHT22;52231;40.090;18.348;2022-11-24T11:44:07;18.80;52.40
65582;DHT22;52231;40.090;18.348;2022-11-24T11:46:38;18.70;53.00
65582;DHT22;52231;40.090;18.348;2022-11-24T11:49:10;18.70;52.30
65582;DHT22;52231;40.090;18.348;2022-11-24T11:57:06;19.30;51.50
65582;DHT22;52231;40.090;18.348;2022-11-24T11:59:51;19.40;51.00
65582;DHT22;52231;40.090;18.348;2022-11-24T12:02:38;19.20;51.10
65582;DHT22;52231;40.090;18.348;2022-11-24T12:13:40;17.60;56.10
65582;DHT22;52231;40.090;18.348;2022-11-24T12:36:00;17.80;54.60
65582;DHT22;52231;40.090;18.348;2022-11-24T12:42:07;17.00;57.20
65582;DHT22;52231;40.090;18.348;2022-11-24T12:44:55;16.80;58.20
65582;DHT22;52231;40.090;18.348;2022-11-24T12:55:45;16.40;60.00
65582;DHT22;52231;40.090;18.348;2022-11-24T12:58:39;16.30;61.20
65582;DHT22;52231;40.090;18.348;2022-11-24T13:01:24;16.10;62.10
65582;DHT22;52231;40.090;18.348;2022-11-24T13:04:22;16.00;62.40
65582;DHT22;52231;40.090;18.348;2022-11-24T13:07:03;16.50;61.10
65582;DHT22;52231;40.090;18.348;2022-11-24T13:09:36;16.80;59.20
65582;DHT22;52231;40.090;18.348;2022-11-24T13:12:11;17.00;57.40
65582;DHT22;52231;40.090;18.348;2022-11-24T13:14:44;17.10;57.50
65582;DHT22;52231;40.090;18.348;2022-11-24T13:17:32;17.30;56.70
65582;DHT22;52231;40.090;18.348;2022-11-24T13:22:52;17.30;56.40
65582;DHT22;52231;40.090;18.348;2022-11-24T13:25:24;17.30;56.10
65582;DHT22;52231;40.090;18.348;2022-11-24T13:27:54;17.30;56.50
65582;DHT22;52231;40.090;18.348;2022-11-24T13:33:30;17.00;54.40
65582;DHT22;52231;40.090;18.348;2022-11-24T13:46:57;16.80;55.10
65582;DHT22;52231;40.090;18.348;2022-11-24T13:49:40;16.80;57.80
65582;DHT22;52231;40.090;18.348;2022-11-24T13:59:15;16.70;58.50
65582;DHT22;52231;40.090;18.348;2022-11-24T14:01:43;16.50;59.70
65582;DHT22;52231;40.090;18.348;2022-11-24T14:04:19;16.30;59.70
65582;DHT22;52231;40.090;18.348;2022-11-24T14:07:01;16.30;60.00
65582;DHT22;52231;40.090;18.348;2022-11-24T14:09:49;16.20;60.70
65582;DHT22;52231;40.090;18.348;2022-11-24T14:12:22;16.00;61.30
65582;DHT22;52231;40.090;18.348;2022-11-24T14:14:52;15.90;61.90
65582;DHT22;52231;40.090;18.348;2022-11-24T14:17:25;15.80;62.80
65582;DHT22;52231;40.090;18.348;2022-11-24T14:19:56;15.70;63.60
65582;DHT22;52231;40.090;18.348;2022-11-24T14:22:35;15.40;64.70
65582;DHT22;52231;40.090;18.348;2022-11-24T14:25:05;15.30;65.80
65582;DHT22;52231;40.090;18.348;2022-11-24T14:27:46;15.20;66.20
65582;DHT22;52231;40.090;18.348;2022-11-24T14:30:19;15.00;66.60
65582;DHT22;52231;40.090;18.348;2022-11-24T14:33:01;14.90;66.80
65582;DHT22;52231;40.090;18.348;2022-11-24T14:35:34;14.80;67.50
65582;DHT22;52231;40.090;18.348;2022-11-24T14:38:40;14.80;68.10
65582;DHT22;52231;40.090;18.348;2022-11-24T14:43:49;14.80;68.30
65582;DHT22;52231;40.090;18.348;2022-11-24T14:46:29;14.80;68.20
65582;DHT22;52231;40.090;18.348;2022-11-24T14:48:58;14.90;68.30
65582;DHT22;52231;40.090;18.348;2022-11-24T14:51:29;15.00;67.90
65582;DHT22;52231;40.090;18.348;2022-11-24T14:54:01;15.20;67.70
65582;DHT22;52231;40.090;18.348;2022-11-24T14:56:35;15.40;66.90
65582;DHT22;52231;40.090;18.348;2022-11-24T14:59:20;15.50;66.70
65582;DHT22;52231;40.090;18.348;2022-11-24T15:01:49;15.60;66.20
65582;DHT22;52231;40.090;18.348;2022-11-24T15:04:31;15.60;65.80
65582;DHT22;52231;40.090;18.348;2022-11-24T15:07:22;15.40;66.00
65582;DHT22;52231;40.090;18.348;2022-11-24T15:09:54;15.10;66.50
65582;DHT22;52231;40.090;18.348;2022-11-24T15:25:40;14.10;69.80
65582;DHT22;52231;40.090;18.348;2022-11-24T15:28:09;13.90;70.30
65582;DHT22;52231;40.090;18.348;2022-11-24T15:30:37;13.80;70.70
65582;DHT22;52231;40.090;18.348;2022-11-24T15:33:15;13.70;71.30
65582;DHT22;52231;40.090;18.348;2022-11-24T15:35:46;13.50;71.80
65582;DHT22;52231;40.090;18.348;2022-11-24T15:38:15;13.40;72.30
65582;DHT22;52231;40.090;18.348;2022-11-24T15:40:46;13.30;73.20
65582;DHT22;52231;40.090;18.348;2022-11-24T15:43:33;13.20;73.40
65582;DHT22;52231;40.090;18.348;2022-11-24T15:46:03;13.20;73.70
65582;DHT22;52231;40.090;18.348;2022-11-24T15:48:32;13.00;73.90
65582;DHT22;52231;40.090;18.348;2022-11-24T15:51:01;13.00;74.10
65582;DHT22;52231;40.090;18.348;2022-11-24T15:53:54;12.90;74.30
65582;DHT22;52231;40.090;18.348;2022-11-24T15:56:32;12.80;74.60
65582;DHT22;52231;40.090;18.348;2022-11-24T15:59:03;12.70;75.20
65582;DHT22;52231;40.090;18.348;2022-11-24T16:01:32;12.70;75.30
65582;DHT22;52231;40.090;18.348;2022-11-24T16:04:01;12.60;75.50
65582;DHT22;52231;40.090;18.348;2022-11-24T16:06:29;12.50;75.80
65582;DHT22;52231;40.090;18.348;2022-11-24T16:08:57;12.50;76.00
65582;DHT22;52231;40.090;18.348;2022-11-24T16:11:25;12.40;76.20
65582;DHT22;52231;40.090;18.348;2022-11-24T16:13:53;12.30;76.20
65582;DHT22;52231;40.090;18.348;2022-11-24T16:16:22;12.30;76.20
65582;DHT22;52231;40.090;18.348;2022-11-24T16:18:51;12.30;76.30
65582;DHT22;52231;40.090;18.348;2022-11-24T16:21:20;12.30;76.50
65582;DHT22;52231;40.090;18.348;2022-11-24T16:23:48;12.20;76.40
65582;DHT22;52231;40.090;18.348;2022-11-24T16:26:16;12.20;76.50
65582;DHT22;52231;40.090;18.348;2022-11-24T16:28:44;12.20;76.80
65582;DHT22;52231;40.090;18.348;2022-11-24T16:31:12;12.10;76.80
65582;DHT22;52231;40.090;18.348;2022-11-24T16:33:44;12.10;77.00
65582;DHT22;52231;40.090;18.348;2022-11-24T16:36:13;12.00;77.00
65582;DHT22;52231;40.090;18.348;2022-11-24T16:38:41;12.00;77.10
65582;DHT22;52231;40.090;18.348;2022-11-24T16:41:09;12.00;77.10
65582;DHT22;52231;40.090;18.348;2022-11-24T16:43:38;12.00;77.20
65582;DHT22;52231;40.090;18.348;2022-11-24T16:46:23;11.90;77.30
65582;DHT22;52231;40.090;18.348;2022-11-24T16:48:53;11.90;77.40
65582;DHT22;52231;40.090;18.348;2022-11-24T16:51:23;11.90;77.60
65582;DHT22;52231;40.090;18.348;2022-11-24T16:53:58;11.90;77.60
65582;DHT22;52231;40.090;18.348;2022-11-24T16:56:28;11.80;77.60
65582;DHT22;52231;40.090;18.348;2022-11-24T16:58:56;11.80;77.80
65582;DHT22;52231;40.090;18.348;2022-11-24T17:01:24;11.80;78.00
65582;DHT22;52231;40.090;18.348;2022-11-24T17:03:52;11.80;78.10
65582;DHT22;52231;40.090;18.348;2022-11-24T17:06:21;11.80;78.10
65582;DHT22;52231;40.090;18.348;2022-11-24T17:08:49;11.80;78.30
65582;DHT22;52231;40.090;18.348;2022-11-24T17:11:22;11.80;78.40
65582;DHT22;52231;40.090;18.348;2022-11-24T17:13:52;11.70;78.70
65582;DHT22;52231;40.090;18.348;2022-11-24T17:16:22;11.60;78.90
65582;DHT22;52231;40.090;18.348;2022-11-24T17:18:51;11.60;79.10
65582;DHT22;52231;40.090;18.348;2022-11-24T17:21:24;11.60;79.20
65582;DHT22;52231;40.090;18.348;2022-11-24T17:23:56;11.60;79.40
65582;DHT22;52231;40.090;18.348;2022-11-24T17:26:26;11.50;79.50
65582;DHT22;52231;40.090;18.348;2022-11-24T17:28:55;11.50;79.60
65582;DHT22;52231;40.090;18.348;2022-11-24T17:31:27;11.50;79.80
65582;DHT22;52231;40.090;18.348;2022-11-24T17:33:57;11.50;80.00
65582;DHT22;52231;40.090;18.348;2022-11-24T17:36:26;11.40;80.00
65582;DHT22;52231;40.090;18.348;2022-11-24T17:38:54;11.40;80.20
65582;DHT22;52231;40.090;18.348;2022-11-24T17:41:22;11.40;80.30
65582;DHT22;52231;40.090;18.348;2022-11-24T17:43:52;11.30;80.40
65582;DHT22;52231;40.090;18.348;2022-11-24T17:46:20;11.30;80.40
65582;DHT22;52231;40.090;18.348;2022-11-24T17:48:49;11.30;80.60
65582;DHT22;52231;40.090;18.348;2022-11-24T17:51:19;11.30;80.60
65582;DHT22;52231;40.090;18.348;2022-11-24T17:53:49;11.30;80.70